createdAt,value
2017-05-24T00:01:09.816Z,0
2017-05-24T00:02:20.812Z,0
2017-05-24T00:03:32.026Z,0
2017-05-24T00:04:43.045Z,0
2017-05-24T00:05:54.056Z,0
2017-05-24T00:07:05.307Z,0
2017-05-24T00:08:16.522Z,0
2017-05-24T00:09:27.530Z,0
2017-05-24T00:10:38.526Z,0
2017-05-24T00:11:49.731Z,0
2017-05-24T00:13:00.787Z,0
2017-05-24T00:14:11.789Z,0
2017-05-24T00:15:22.865Z,0
2017-05-24T00:16:33.869Z,0
2017-05-24T00:17:45.083Z,0
2017-05-24T00:18:56.152Z,0
2017-05-24T00:20:07.223Z,0
2017-05-24T00:21:18.220Z,0
2017-05-24T00:22:29.226Z,0
2017-05-24T00:23:40.238Z,0
2017-05-24T00:24:51.302Z,0
2017-05-24T00:26:02.306Z,0
2017-05-24T00:27:13.323Z,0
2017-05-24T00:28:24.324Z,0
2017-05-24T00:29:35.333Z,0
2017-05-24T00:30:46.399Z,0
2017-05-24T00:31:57.412Z,0
2017-05-24T00:33:08.626Z,0
2017-05-24T00:34:19.634Z,0
2017-05-24T00:35:30.692Z,0
2017-05-24T00:36:41.705Z,0
2017-05-24T00:37:52.725Z,0
2017-05-24T00:39:03.945Z,0
2017-05-24T00:40:14.952Z,0
2017-05-24T00:41:26.003Z,0
2017-05-24T00:42:37.011Z,0
2017-05-24T00:43:48.239Z,0
2017-05-24T00:44:59.467Z,0
2017-05-24T00:46:10.672Z,0
2017-05-24T00:47:21.734Z,0
2017-05-24T00:48:32.941Z,0
2017-05-24T00:49:43.937Z,0
2017-05-24T00:50:54.944Z,0
2017-05-24T00:52:05.965Z,0
2017-05-24T00:53:17.230Z,0
2017-05-24T00:54:28.238Z,0
2017-05-24T00:55:39.256Z,0
2017-05-24T00:56:50.273Z,0
2017-05-24T00:58:01.286Z,0
2017-05-24T00:59:12.545Z,0
2017-05-24T01:00:23.551Z,0
2017-05-24T01:01:34.560Z,0
2017-05-24T01:02:45.575Z,0
2017-05-24T01:03:56.608Z,0
2017-05-24T01:05:07.877Z,0
2017-05-24T01:06:19.093Z,0
2017-05-24T01:07:30.087Z,0
2017-05-24T01:08:41.095Z,0
2017-05-24T01:09:52.295Z,0
2017-05-24T01:11:03.315Z,0
2017-05-24T01:12:14.321Z,0
2017-05-24T01:13:25.339Z,0
2017-05-24T01:14:36.363Z,0
2017-05-24T01:15:47.410Z,0
2017-05-24T01:16:58.429Z,0
2017-05-24T01:18:09.435Z,0
2017-05-24T01:19:20.664Z,0
2017-05-24T01:20:31.672Z,0
2017-05-24T01:21:42.730Z,0
2017-05-24T01:22:53.741Z,0
2017-05-24T01:24:04.770Z,0
2017-05-24T01:25:15.772Z,0
2017-05-24T01:26:26.989Z,0
2017-05-24T01:27:38.096Z,0
2017-05-24T01:28:49.116Z,0
2017-05-24T01:30:00.324Z,0
2017-05-24T01:31:11.602Z,0
2017-05-24T01:32:22.818Z,0
2017-05-24T01:33:33.880Z,0
2017-05-24T01:34:44.901Z,0
2017-05-24T01:35:55.924Z,0
2017-05-24T01:37:07.127Z,0
2017-05-24T01:38:18.135Z,0
2017-05-24T01:39:29.201Z,0
2017-05-24T01:40:40.216Z,0
2017-05-24T01:41:51.225Z,0
2017-05-24T01:43:02.234Z,0
2017-05-24T01:44:13.260Z,0
2017-05-24T01:45:24.326Z,0
2017-05-24T01:46:35.342Z,0
2017-05-24T01:47:46.350Z,0
2017-05-24T01:48:57.371Z,0
2017-05-24T01:50:08.586Z,0
2017-05-24T01:51:19.648Z,0
2017-05-24T01:52:30.845Z,0
2017-05-24T01:53:41.856Z,0
2017-05-24T01:54:53.074Z,0
2017-05-24T01:56:04.291Z,0
2017-05-24T01:57:15.351Z,0
2017-05-24T01:58:26.368Z,0
2017-05-24T01:59:37.379Z,0
2017-05-24T02:00:48.402Z,0
2017-05-24T02:01:59.413Z,0
2017-05-24T02:03:10.674Z,0
2017-05-24T02:04:21.690Z,0
2017-05-24T02:05:32.706Z,0
2017-05-24T02:06:43.707Z,0
2017-05-24T02:07:54.720Z,0
2017-05-24T02:09:05.788Z,0
2017-05-24T02:10:16.793Z,0
2017-05-24T02:11:27.795Z,0
2017-05-24T02:12:38.802Z,0
2017-05-24T02:13:49.827Z,0
2017-05-24T02:15:00.885Z,0
2017-05-24T02:16:12.097Z,0
2017-05-24T02:17:23.110Z,0
2017-05-24T02:18:34.390Z,0
2017-05-24T02:19:45.401Z,0
2017-05-24T02:20:56.425Z,0
2017-05-24T02:22:07.424Z,0
2017-05-24T02:23:18.446Z,0
2017-05-24T02:24:29.448Z,0
2017-05-24T02:25:40.514Z,0
2017-05-24T02:26:51.524Z,0
2017-05-24T02:28:02.549Z,0
2017-05-24T02:29:13.575Z,0
2017-05-24T02:30:24.594Z,0
2017-05-24T02:31:35.646Z,0
2017-05-24T02:32:46.865Z,0
2017-05-24T02:33:57.877Z,0
2017-05-24T02:35:08.880Z,0
2017-05-24T02:36:20.295Z,0
2017-05-24T02:37:31.546Z,0
2017-05-24T02:38:42.557Z,0
2017-05-24T02:39:53.574Z,0
2017-05-24T02:41:04.783Z,0
2017-05-24T02:42:15.793Z,0
2017-05-24T02:43:27.124Z,0
2017-05-24T02:44:38.147Z,0
2017-05-24T02:45:49.148Z,0
2017-05-24T02:47:00.369Z,0
2017-05-24T02:48:11.387Z,0
2017-05-24T02:49:22.451Z,0
2017-05-24T02:50:33.470Z,0
2017-05-24T02:51:44.681Z,0
2017-05-24T02:52:55.695Z,0
2017-05-24T02:54:06.905Z,0
2017-05-24T02:55:17.976Z,0
2017-05-24T02:56:29.191Z,0
2017-05-24T02:57:40.405Z,0
2017-05-24T02:58:51.404Z,0
2017-05-24T03:00:02.413Z,0
2017-05-24T03:01:13.481Z,0
2017-05-24T03:02:24.486Z,0
2017-05-24T03:03:35.507Z,0
2017-05-24T03:04:46.524Z,0
2017-05-24T03:05:57.545Z,0
2017-05-24T03:07:08.801Z,0
2017-05-24T03:08:19.813Z,0
2017-05-24T03:09:31.016Z,0
2017-05-24T03:10:42.019Z,0
2017-05-24T03:11:53.030Z,0
2017-05-24T03:13:04.090Z,0
2017-05-24T03:14:15.119Z,0
2017-05-24T03:15:26.133Z,0
2017-05-24T03:16:37.147Z,5
2017-05-24T03:17:48.161Z,5
2017-05-24T03:18:59.227Z,5
2017-05-24T03:20:10.443Z,5
2017-05-24T03:21:21.644Z,5
2017-05-24T03:22:32.637Z,5
2017-05-24T03:23:43.852Z,5
2017-05-24T03:24:54.913Z,10
2017-05-24T03:26:06.124Z,10
2017-05-24T03:27:17.138Z,10
2017-05-24T03:28:28.159Z,10
2017-05-24T03:29:39.373Z,10
2017-05-24T03:30:50.391Z,15
2017-05-24T03:32:01.800Z,15
2017-05-24T03:33:12.808Z,15
2017-05-24T03:34:23.818Z,20
2017-05-24T03:35:34.883Z,20
2017-05-24T03:36:45.887Z,20
2017-05-24T03:37:57.101Z,25
2017-05-24T03:39:08.117Z,25
2017-05-24T03:40:19.130Z,25
2017-05-24T03:41:30.387Z,25
2017-05-24T03:42:41.410Z,30
2017-05-24T03:43:52.408Z,30
2017-05-24T03:45:03.411Z,30
2017-05-24T03:46:14.409Z,30
2017-05-24T03:47:25.467Z,30
2017-05-24T03:48:36.471Z,35
2017-05-24T03:49:47.684Z,35
2017-05-24T03:50:58.687Z,35
2017-05-24T03:52:09.693Z,40
2017-05-24T03:53:20.807Z,40
2017-05-24T03:54:31.827Z,45
2017-05-24T03:55:42.839Z,45
2017-05-24T03:56:53.859Z,50
2017-05-24T03:58:04.879Z,55
2017-05-24T03:59:16.134Z,60
2017-05-24T04:00:27.141Z,60
2017-05-24T04:01:38.372Z,65
2017-05-24T04:02:49.377Z,70
2017-05-24T04:04:00.586Z,70
2017-05-24T04:05:11.605Z,70
2017-05-24T04:06:23.013Z,65
2017-05-24T04:07:34.032Z,60
2017-05-24T04:08:45.055Z,60
2017-05-24T04:09:56.311Z,65
2017-05-24T04:11:07.319Z,65
2017-05-24T04:12:18.329Z,65
2017-05-24T04:13:29.538Z,65
2017-05-24T04:14:40.554Z,60
2017-05-24T04:15:51.629Z,65
2017-05-24T04:17:02.652Z,65
2017-05-24T04:18:13.666Z,65
2017-05-24T04:19:24.685Z,65
2017-05-24T04:20:35.685Z,70
2017-05-24T04:21:46.731Z,70
2017-05-24T04:22:57.735Z,70
2017-05-24T04:24:08.932Z,75
2017-05-24T04:25:19.941Z,80
2017-05-24T04:26:30.948Z,155
2017-05-24T04:27:42.201Z,165
2017-05-24T04:28:53.209Z,135
2017-05-24T04:30:04.218Z,305
2017-05-24T04:31:15.237Z,145
2017-05-24T04:32:26.442Z,180
2017-05-24T04:33:37.705Z,85
2017-05-24T04:34:48.908Z,85
2017-05-24T04:35:59.910Z,95
2017-05-24T04:37:10.924Z,100
2017-05-24T04:38:21.949Z,110
2017-05-24T04:39:33.017Z,115
2017-05-24T04:40:44.027Z,145
2017-05-24T04:41:55.028Z,170
2017-05-24T04:43:06.029Z,170
2017-05-24T04:44:17.249Z,145
2017-05-24T04:45:28.318Z,125
2017-05-24T04:46:39.325Z,120
2017-05-24T04:47:50.343Z,110
2017-05-24T04:49:01.757Z,115
2017-05-24T04:50:12.778Z,120
2017-05-24T04:51:23.840Z,120
2017-05-24T04:52:34.842Z,115
2017-05-24T04:53:46.061Z,110
2017-05-24T04:54:57.126Z,115
2017-05-24T04:56:08.132Z,130
2017-05-24T04:57:19.193Z,140
2017-05-24T04:58:30.195Z,170
2017-05-24T04:59:41.207Z,210
2017-05-24T05:00:52.205Z,215
2017-05-24T05:02:03.211Z,215
2017-05-24T05:03:14.275Z,225
2017-05-24T05:04:25.338Z,230
2017-05-24T05:05:36.352Z,225
2017-05-24T05:06:47.348Z,210
2017-05-24T05:07:58.364Z,195
2017-05-24T05:09:09.426Z,185
2017-05-24T05:10:20.432Z,180
2017-05-24T05:11:31.856Z,165
2017-05-24T05:12:42.885Z,165
2017-05-24T05:13:53.899Z,175
2017-05-24T05:15:04.976Z,190
2017-05-24T05:16:15.995Z,210
2017-05-24T05:17:27.011Z,225
2017-05-24T05:18:38.031Z,225
2017-05-24T05:19:49.043Z,200
2017-05-24T05:21:00.065Z,185
2017-05-24T05:22:11.076Z,175
2017-05-24T05:23:22.287Z,180
2017-05-24T05:24:33.305Z,195
2017-05-24T05:25:44.363Z,215
2017-05-24T05:26:55.379Z,235
2017-05-24T05:28:06.409Z,260
2017-05-24T05:29:17.431Z,265
2017-05-24T05:30:28.426Z,270
2017-05-24T05:31:39.895Z,300
2017-05-24T05:32:51.316Z,350
2017-05-24T05:34:02.335Z,345
2017-05-24T05:35:13.344Z,400
2017-05-24T05:36:24.573Z,355
2017-05-24T05:37:35.686Z,325
2017-05-24T05:38:46.979Z,295
2017-05-24T05:39:57.999Z,280
2017-05-24T05:41:09.016Z,260
2017-05-24T05:42:20.026Z,320
2017-05-24T05:43:31.104Z,330
2017-05-24T05:44:42.115Z,315
2017-05-24T05:45:53.127Z,310
2017-05-24T05:47:04.142Z,300
2017-05-24T05:48:15.355Z,285
2017-05-24T05:49:26.412Z,300
2017-05-24T05:50:37.425Z,345
2017-05-24T05:51:48.446Z,390
2017-05-24T05:52:59.461Z,410
2017-05-24T05:54:10.697Z,405
2017-05-24T05:55:21.966Z,435
2017-05-24T05:56:32.972Z,500
2017-05-24T05:57:43.991Z,640
2017-05-24T05:58:55.408Z,875
2017-05-24T06:00:06.416Z,835
2017-05-24T06:01:17.674Z,1030
2017-05-24T06:02:28.686Z,1430
2017-05-24T06:03:40.114Z,490
2017-05-24T06:04:51.132Z,335
2017-05-24T06:06:02.349Z,335
2017-05-24T06:07:13.416Z,280
2017-05-24T06:08:24.434Z,295
2017-05-24T06:09:35.645Z,330
2017-05-24T06:10:46.652Z,380
2017-05-24T06:11:57.672Z,520
2017-05-24T06:13:08.734Z,1485
2017-05-24T06:14:19.756Z,960
2017-05-24T06:15:30.773Z,1580
2017-05-24T06:16:41.790Z,1645
2017-05-24T06:17:52.817Z,1735
2017-05-24T06:19:03.895Z,1810
2017-05-24T06:20:14.904Z,1695
2017-05-24T06:21:25.926Z,1645
2017-05-24T06:22:36.944Z,915
2017-05-24T06:23:47.965Z,810
2017-05-24T06:24:59.103Z,1655
2017-05-24T06:26:10.126Z,785
2017-05-24T06:27:21.353Z,1885
2017-05-24T06:28:32.380Z,1785
2017-05-24T06:29:43.415Z,2065
2017-05-24T06:30:54.640Z,2265
2017-05-24T06:32:05.673Z,1825
2017-05-24T06:33:16.700Z,1060
2017-05-24T06:34:27.719Z,815
2017-05-24T06:35:38.805Z,660
2017-05-24T06:36:49.836Z,520
2017-05-24T06:38:00.873Z,375
2017-05-24T06:39:11.890Z,330
2017-05-24T06:40:22.914Z,355
2017-05-24T06:41:33.979Z,375
2017-05-24T06:42:44.991Z,400
2017-05-24T06:43:56.021Z,405
2017-05-24T06:45:07.045Z,385
2017-05-24T06:46:18.066Z,335
2017-05-24T06:47:29.345Z,290
2017-05-24T06:48:40.369Z,255
2017-05-24T06:49:51.397Z,225
2017-05-24T06:51:02.396Z,215
2017-05-24T06:52:13.625Z,230
2017-05-24T06:53:24.913Z,260
2017-05-24T06:54:35.930Z,275
2017-05-24T06:55:46.941Z,270
2017-05-24T06:56:58.172Z,260
2017-05-24T06:58:09.194Z,245
2017-05-24T06:59:20.275Z,265
2017-05-24T07:00:31.499Z,320
2017-05-24T07:01:42.719Z,1065
2017-05-24T07:02:53.731Z,895
2017-05-24T07:04:04.959Z,515
2017-05-24T07:05:16.033Z,410
2017-05-24T07:06:27.063Z,365
2017-05-24T07:07:38.333Z,315
2017-05-24T07:08:49.366Z,255
2017-05-24T07:10:00.443Z,205
2017-05-24T07:11:11.516Z,200
2017-05-24T07:12:22.544Z,245
2017-05-24T07:13:33.772Z,300
2017-05-24T07:14:44.795Z,320
2017-05-24T07:15:55.813Z,265
2017-05-24T07:17:06.873Z,270
2017-05-24T07:18:17.887Z,320
2017-05-24T07:19:29.117Z,305
2017-05-24T07:20:40.138Z,250
2017-05-24T07:21:51.362Z,215
2017-05-24T07:23:02.420Z,205
2017-05-24T07:24:13.445Z,210
2017-05-24T07:25:24.471Z,220
2017-05-24T07:26:35.489Z,220
2017-05-24T07:27:46.502Z,245
2017-05-24T07:28:57.566Z,270
2017-05-24T07:30:08.595Z,325
2017-05-24T07:31:19.621Z,315
2017-05-24T07:32:31.042Z,255
2017-05-24T07:33:42.060Z,210
2017-05-24T07:34:53.123Z,230
2017-05-24T07:36:04.148Z,275
2017-05-24T07:37:15.590Z,285
2017-05-24T07:38:26.604Z,275
2017-05-24T07:39:37.630Z,325
2017-05-24T07:40:48.648Z,355
2017-05-24T07:41:59.668Z,375
2017-05-24T07:43:10.722Z,390
2017-05-24T07:44:21.744Z,385
2017-05-24T07:45:32.807Z,405
2017-05-24T07:46:44.023Z,440
2017-05-24T07:47:55.032Z,500
2017-05-24T07:49:06.046Z,565
2017-05-24T07:50:17.065Z,600
2017-05-24T07:51:28.321Z,700
2017-05-24T07:52:39.336Z,620
2017-05-24T07:53:50.544Z,580
2017-05-24T07:55:01.777Z,580
2017-05-24T07:56:12.867Z,505
2017-05-24T07:57:23.938Z,505
2017-05-24T07:58:35.160Z,610
2017-05-24T07:59:46.377Z,680
2017-05-24T08:00:57.389Z,600
2017-05-24T08:02:08.408Z,505
2017-05-24T08:03:19.487Z,710
2017-05-24T08:04:30.520Z,815
2017-05-24T08:05:41.541Z,660
2017-05-24T08:06:52.765Z,580
2017-05-24T08:08:03.978Z,420
2017-05-24T08:09:15.048Z,385
2017-05-24T08:10:26.064Z,380
2017-05-24T08:11:37.273Z,380
2017-05-24T08:12:48.339Z,365
2017-05-24T08:13:59.369Z,345
2017-05-24T08:15:10.429Z,355
2017-05-24T08:16:21.444Z,490
2017-05-24T08:17:32.461Z,760
2017-05-24T08:18:43.485Z,700
2017-05-24T08:19:54.777Z,480
2017-05-24T08:21:05.862Z,725
2017-05-24T08:22:16.878Z,895
2017-05-24T08:23:27.930Z,630
2017-05-24T08:24:39.153Z,690
2017-05-24T08:25:50.232Z,850
2017-05-24T08:27:01.251Z,850
2017-05-24T08:28:12.267Z,855
2017-05-24T08:29:23.291Z,785
2017-05-24T08:30:34.303Z,805
2017-05-24T08:31:45.577Z,1100
2017-05-24T08:32:56.596Z,950
2017-05-24T08:34:07.617Z,1510
2017-05-24T08:35:18.858Z,1085
2017-05-24T08:36:30.090Z,720
2017-05-24T08:37:41.167Z,610
2017-05-24T08:38:52.199Z,575
2017-05-24T08:40:03.423Z,550
2017-05-24T08:41:14.437Z,525
2017-05-24T08:42:25.459Z,470
2017-05-24T08:43:36.542Z,465
2017-05-24T08:44:47.569Z,455
2017-05-24T08:45:58.605Z,425
2017-05-24T08:47:09.836Z,425
2017-05-24T08:48:20.862Z,430
2017-05-24T08:49:31.932Z,420
2017-05-24T08:50:42.958Z,390
2017-05-24T08:51:53.992Z,375
2017-05-24T08:53:05.280Z,375
2017-05-24T08:54:16.293Z,385
2017-05-24T08:55:27.368Z,390
2017-05-24T08:56:38.585Z,405
2017-05-24T08:57:49.803Z,390
2017-05-24T08:59:00.822Z,395
2017-05-24T09:00:11.838Z,420
2017-05-24T09:01:22.905Z,420
2017-05-24T09:02:34.122Z,430
2017-05-24T09:03:45.140Z,425
2017-05-24T09:04:56.150Z,415
2017-05-24T09:06:07.167Z,435
2017-05-24T09:07:18.240Z,455
2017-05-24T09:08:29.455Z,475
2017-05-24T09:09:40.486Z,530
2017-05-24T09:10:51.706Z,615
2017-05-24T09:12:02.729Z,810
2017-05-24T09:13:13.788Z,720
2017-05-24T09:14:25.014Z,1015
2017-05-24T09:15:36.035Z,830
2017-05-24T09:16:47.305Z,1135
2017-05-24T09:17:58.530Z,1025
2017-05-24T09:19:09.611Z,955
2017-05-24T09:20:20.633Z,945
2017-05-24T09:21:31.865Z,1030
2017-05-24T09:22:42.889Z,990
2017-05-24T09:23:54.118Z,935
2017-05-24T09:25:05.205Z,1035
2017-05-24T09:26:16.222Z,1035
2017-05-24T09:27:27.435Z,980
2017-05-24T09:28:38.451Z,890
2017-05-24T09:29:49.472Z,1100
2017-05-24T09:31:00.497Z,870
2017-05-24T09:32:11.515Z,745
2017-05-24T09:33:22.541Z,1500
2017-05-24T09:34:33.776Z,695
2017-05-24T09:35:44.847Z,680
2017-05-24T09:36:55.893Z,880
2017-05-24T09:38:06.923Z,700
2017-05-24T09:39:17.943Z,715
2017-05-24T09:40:29.160Z,705
2017-05-24T09:41:40.630Z,740
2017-05-24T09:42:51.845Z,740
2017-05-24T09:44:02.866Z,700
2017-05-24T09:45:13.953Z,660
2017-05-24T09:46:24.978Z,565
2017-05-24T09:47:36.047Z,505
2017-05-24T09:48:47.083Z,515
2017-05-24T09:49:58.098Z,590
2017-05-24T09:51:09.113Z,1040
2017-05-24T09:52:20.340Z,670
2017-05-24T09:53:31.417Z,555
2017-05-24T09:54:42.455Z,510
2017-05-24T09:55:53.477Z,505
2017-05-24T09:57:04.501Z,585
2017-05-24T09:58:15.526Z,755
2017-05-24T09:59:26.609Z,935
2017-05-24T10:00:37.637Z,810
2017-05-24T10:01:48.658Z,805
2017-05-24T10:02:59.894Z,1115
2017-05-24T10:04:10.898Z,895
2017-05-24T10:05:22.176Z,1495
2017-05-24T10:06:33.204Z,1465
2017-05-24T10:07:44.240Z,1200
2017-05-24T10:08:55.270Z,1275
2017-05-24T10:10:06.354Z,1375
2017-05-24T10:11:17.427Z,1210
2017-05-24T10:12:28.502Z,995
2017-05-24T10:13:39.732Z,1255
2017-05-24T10:14:50.755Z,1085
2017-05-24T10:16:01.786Z,1265
2017-05-24T10:17:12.859Z,905
2017-05-24T10:18:23.897Z,1075
2017-05-24T10:19:34.921Z,960
2017-05-24T10:20:45.944Z,1490
2017-05-24T10:21:56.969Z,955
2017-05-24T10:23:08.032Z,725
2017-05-24T10:24:19.101Z,660
2017-05-24T10:25:30.330Z,700
2017-05-24T10:26:41.350Z,675
2017-05-24T10:27:52.587Z,645
2017-05-24T10:29:03.655Z,615
2017-05-24T10:30:14.887Z,650
2017-05-24T10:31:25.910Z,755
2017-05-24T10:32:36.939Z,845
2017-05-24T10:33:47.968Z,790
2017-05-24T10:34:59.036Z,740
2017-05-24T10:36:10.129Z,770
2017-05-24T10:37:21.150Z,1085
2017-05-24T10:38:32.402Z,810
2017-05-24T10:39:43.434Z,890
2017-05-24T10:40:54.475Z,870
2017-05-24T10:42:05.500Z,845
2017-05-24T10:43:16.727Z,1190
2017-05-24T10:44:27.773Z,890
2017-05-24T10:45:38.857Z,925
2017-05-24T10:46:49.883Z,905
2017-05-24T10:48:00.907Z,995
2017-05-24T10:49:11.927Z,965
2017-05-24T10:50:22.940Z,1055
2017-05-24T10:51:34.218Z,1130
2017-05-24T10:52:45.249Z,865
2017-05-24T10:53:56.472Z,815
2017-05-24T10:55:07.496Z,800
2017-05-24T10:56:18.530Z,850
2017-05-24T10:57:29.604Z,890
2017-05-24T10:58:40.629Z,805
2017-05-24T10:59:51.645Z,755
2017-05-24T11:01:02.665Z,740
2017-05-24T11:02:13.703Z,815
2017-05-24T11:03:24.780Z,955
2017-05-24T11:04:35.804Z,985
2017-05-24T11:05:46.822Z,1165
2017-05-24T11:06:57.848Z,1070
2017-05-24T11:08:09.082Z,1195
2017-05-24T11:09:20.147Z,1205
2017-05-24T11:10:31.175Z,1395
2017-05-24T11:11:42.196Z,1020
2017-05-24T11:12:53.214Z,1315
2017-05-24T11:14:04.430Z,1095
2017-05-24T11:15:15.495Z,1330
2017-05-24T11:16:26.539Z,1115
2017-05-24T11:17:37.573Z,1090
2017-05-24T11:18:48.610Z,1175
2017-05-24T11:19:59.629Z,1195
2017-05-24T11:21:10.703Z,1385
2017-05-24T11:22:21.723Z,1280
2017-05-24T11:23:32.744Z,840
2017-05-24T11:24:43.769Z,820
2017-05-24T11:25:54.798Z,905
2017-05-24T11:27:06.071Z,835
2017-05-24T11:28:17.096Z,955
2017-05-24T11:29:28.119Z,845
2017-05-24T11:30:39.221Z,855
2017-05-24T11:31:50.245Z,775
2017-05-24T11:33:01.330Z,805
2017-05-24T11:34:12.553Z,725
2017-05-24T11:35:23.591Z,685
2017-05-24T11:36:34.817Z,680
2017-05-24T11:37:45.860Z,585
2017-05-24T11:38:57.147Z,555
2017-05-24T11:40:08.197Z,560
2017-05-24T11:41:19.222Z,600
2017-05-24T11:42:30.251Z,655
2017-05-24T11:43:41.479Z,665
2017-05-24T11:44:52.549Z,675
2017-05-24T11:46:03.584Z,815
2017-05-24T11:47:14.819Z,695
2017-05-24T11:48:25.850Z,705
2017-05-24T11:49:36.872Z,685
2017-05-24T11:50:48.105Z,750
2017-05-24T11:51:59.120Z,785
2017-05-24T11:53:10.359Z,825
2017-05-24T11:54:21.388Z,920
2017-05-24T11:55:32.461Z,825
2017-05-24T11:56:43.475Z,740
2017-05-24T11:57:54.501Z,715
2017-05-24T11:59:05.522Z,715
2017-05-24T12:00:16.547Z,680
2017-05-24T12:01:27.820Z,605
2017-05-24T12:02:38.843Z,575
2017-05-24T12:03:49.867Z,610
2017-05-24T12:05:01.097Z,730
2017-05-24T12:06:12.116Z,810
2017-05-24T12:07:23.186Z,870
2017-05-24T12:08:34.221Z,835
2017-05-24T12:09:45.251Z,860
2017-05-24T12:10:56.286Z,980
2017-05-24T12:12:07.309Z,785
2017-05-24T12:13:18.378Z,765
2017-05-24T12:14:29.404Z,1080
2017-05-24T12:15:40.417Z,1130
2017-05-24T12:16:51.439Z,720
2017-05-24T12:18:02.661Z,930
2017-05-24T12:19:13.729Z,740
2017-05-24T12:20:24.954Z,630
2017-05-24T12:21:35.971Z,595
2017-05-24T12:22:47.193Z,635
2017-05-24T12:23:58.222Z,725
2017-05-24T12:25:09.488Z,980
2017-05-24T12:26:20.508Z,810
2017-05-24T12:27:31.730Z,730
2017-05-24T12:28:42.750Z,620
2017-05-24T12:29:53.780Z,595
2017-05-24T12:31:04.815Z,570
2017-05-24T12:32:15.838Z,540
2017-05-24T12:33:26.851Z,540
2017-05-24T12:34:38.091Z,455
2017-05-24T12:35:49.153Z,415
2017-05-24T12:37:00.183Z,440
2017-05-24T12:38:11.406Z,515
2017-05-24T12:39:22.442Z,585
2017-05-24T12:40:33.459Z,685
2017-05-24T12:41:44.522Z,545
2017-05-24T12:42:55.552Z,530
2017-05-24T12:44:06.781Z,535
2017-05-24T12:45:17.990Z,515
2017-05-24T12:46:29.017Z,550
2017-05-24T12:47:40.096Z,440
2017-05-24T12:48:51.130Z,420
2017-05-24T12:50:02.143Z,395
2017-05-24T12:51:13.172Z,405
2017-05-24T12:52:24.196Z,340
2017-05-24T12:53:35.264Z,265
2017-05-24T12:54:46.286Z,230
2017-05-24T12:55:57.302Z,215
2017-05-24T12:57:08.522Z,235
2017-05-24T12:58:19.754Z,275
2017-05-24T12:59:31.034Z,320
2017-05-24T13:00:42.059Z,355
2017-05-24T13:01:53.486Z,370
2017-05-24T13:03:04.513Z,405
2017-05-24T13:04:15.522Z,465
2017-05-24T13:05:26.653Z,520
2017-05-24T13:06:37.669Z,490
2017-05-24T13:07:48.691Z,470
2017-05-24T13:08:59.718Z,395
2017-05-24T13:10:10.928Z,285
2017-05-24T13:11:22.204Z,255
2017-05-24T13:12:33.222Z,265
2017-05-24T13:13:44.437Z,260
2017-05-24T13:14:55.657Z,255
2017-05-24T13:16:06.693Z,255
2017-05-24T13:17:17.753Z,215
2017-05-24T13:18:28.779Z,190
2017-05-24T13:19:39.818Z,185
2017-05-24T13:20:51.049Z,215
2017-05-24T13:22:02.126Z,225
2017-05-24T13:23:13.185Z,220
2017-05-24T13:24:24.202Z,225
2017-05-24T13:25:35.222Z,210
2017-05-24T13:26:46.258Z,185
2017-05-24T13:27:57.283Z,190
2017-05-24T13:29:08.364Z,175
2017-05-24T13:30:19.379Z,180
2017-05-24T13:31:30.395Z,185
2017-05-24T13:32:41.411Z,190
2017-05-24T13:33:52.627Z,180
2017-05-24T13:35:03.732Z,155
2017-05-24T13:36:14.755Z,145
2017-05-24T13:37:25.777Z,150
2017-05-24T13:38:36.806Z,135
2017-05-24T13:39:48.031Z,125
2017-05-24T13:40:59.051Z,115
2017-05-24T13:42:10.084Z,115
2017-05-24T13:43:21.109Z,95
2017-05-24T13:44:32.328Z,85
2017-05-24T13:45:43.401Z,90
2017-05-24T13:46:54.414Z,95
2017-05-24T13:48:05.440Z,105
2017-05-24T13:49:16.454Z,130
2017-05-24T13:50:27.479Z,140
2017-05-24T13:51:38.549Z,150
2017-05-24T13:52:49.763Z,150
2017-05-24T13:54:00.793Z,145
2017-05-24T13:55:11.811Z,135
2017-05-24T13:56:22.813Z,155
2017-05-24T13:57:33.881Z,160
2017-05-24T13:58:44.906Z,145
2017-05-24T13:59:55.940Z,155
2017-05-24T14:01:06.956Z,180
2017-05-24T14:02:17.990Z,185
2017-05-24T14:03:29.057Z,210
2017-05-24T14:04:40.079Z,230
2017-05-24T14:05:51.097Z,230
2017-05-24T14:07:02.118Z,225
2017-05-24T14:08:13.144Z,220
2017-05-24T14:09:24.435Z,225
2017-05-24T14:10:35.443Z,235
2017-05-24T14:11:46.457Z,230
2017-05-24T14:12:57.474Z,210
2017-05-24T14:14:08.679Z,215
2017-05-24T14:15:19.954Z,235
2017-05-24T14:16:30.958Z,280
2017-05-24T14:17:41.985Z,350
2017-05-24T14:18:53.006Z,435
2017-05-24T14:20:04.226Z,465
2017-05-24T14:21:15.297Z,460
2017-05-24T14:22:26.310Z,445
2017-05-24T14:23:37.537Z,430
2017-05-24T14:24:48.556Z,410
2017-05-24T14:25:59.573Z,380
2017-05-24T14:27:10.633Z,395
2017-05-24T14:28:21.650Z,430
2017-05-24T14:29:32.878Z,500
2017-05-24T14:30:44.089Z,505
2017-05-24T14:31:55.119Z,470
2017-05-24T14:33:06.186Z,535
2017-05-24T14:34:17.221Z,525
2017-05-24T14:35:28.230Z,520
2017-05-24T14:36:39.231Z,455
2017-05-24T14:37:50.249Z,425
2017-05-24T14:39:01.271Z,435
2017-05-24T14:40:12.307Z,435
2017-05-24T14:41:23.333Z,430
2017-05-24T14:42:34.357Z,410
2017-05-24T14:43:45.442Z,390
2017-05-24T14:44:56.460Z,365
2017-05-24T14:46:07.500Z,340
2017-05-24T14:47:18.527Z,310
2017-05-24T14:48:29.754Z,280
2017-05-24T14:49:40.833Z,270
2017-05-24T14:50:51.870Z,280
2017-05-24T14:52:02.901Z,285
2017-05-24T14:53:13.933Z,340
2017-05-24T14:54:24.949Z,330
2017-05-24T14:55:36.014Z,340
2017-05-24T14:56:47.235Z,345
2017-05-24T14:57:58.248Z,305
2017-05-24T14:59:09.267Z,270
2017-05-24T15:00:20.283Z,250
2017-05-24T15:01:31.352Z,260
2017-05-24T15:02:42.377Z,270
2017-05-24T15:03:53.408Z,280
2017-05-24T15:05:04.450Z,310
2017-05-24T15:06:15.667Z,310
2017-05-24T15:07:26.938Z,340
2017-05-24T15:08:37.961Z,350
2017-05-24T15:09:48.987Z,335
2017-05-24T15:11:00.001Z,315
2017-05-24T15:12:11.222Z,305
2017-05-24T15:13:22.502Z,320
2017-05-24T15:14:33.519Z,310
2017-05-24T15:15:44.540Z,300
2017-05-24T15:16:55.763Z,305
2017-05-24T15:18:06.790Z,310
2017-05-24T15:19:18.068Z,310
2017-05-24T15:20:29.092Z,310
2017-05-24T15:21:40.713Z,295
2017-05-24T15:22:51.744Z,275
2017-05-24T15:24:02.767Z,260
2017-05-24T15:25:13.837Z,255
2017-05-24T15:26:24.852Z,250
2017-05-24T15:27:35.866Z,250
2017-05-24T15:28:46.894Z,270
2017-05-24T15:29:57.899Z,315
2017-05-24T15:31:08.923Z,320
2017-05-24T15:32:20.152Z,305
2017-05-24T15:33:31.180Z,295
2017-05-24T15:34:42.192Z,285
2017-05-24T15:35:53.259Z,250
2017-05-24T15:37:04.480Z,280
2017-05-24T15:38:15.495Z,265
2017-05-24T15:39:26.522Z,250
2017-05-24T15:40:37.540Z,265
2017-05-24T15:41:48.608Z,280
2017-05-24T15:42:59.630Z,270
2017-05-24T15:44:10.658Z,295
2017-05-24T15:45:21.885Z,260
2017-05-24T15:46:32.914Z,230
2017-05-24T15:47:43.984Z,235
2017-05-24T15:48:55.017Z,240
2017-05-24T15:50:06.052Z,290
2017-05-24T15:51:17.079Z,255
2017-05-24T15:52:28.098Z,280
2017-05-24T15:53:39.174Z,295
2017-05-24T15:54:50.241Z,285
2017-05-24T15:56:01.267Z,270
2017-05-24T15:57:12.482Z,265
2017-05-24T15:58:23.495Z,295
2017-05-24T15:59:34.576Z,305
2017-05-24T16:00:46.000Z,300
2017-05-24T16:01:57.016Z,310
2017-05-24T16:03:08.035Z,315
2017-05-24T16:04:19.254Z,305
2017-05-24T16:05:30.315Z,320
2017-05-24T16:06:41.341Z,320
2017-05-24T16:07:52.365Z,300
2017-05-24T16:09:03.389Z,290
2017-05-24T16:10:14.395Z,290
2017-05-24T16:11:25.457Z,290
2017-05-24T16:12:36.482Z,295
2017-05-24T16:13:47.499Z,290
2017-05-24T16:14:58.544Z,260
2017-05-24T16:16:09.565Z,250
2017-05-24T16:17:20.630Z,260
2017-05-24T16:18:31.655Z,295
2017-05-24T16:19:42.866Z,305
2017-05-24T16:20:53.889Z,260
2017-05-24T16:22:05.127Z,250
2017-05-24T16:23:16.213Z,250
2017-05-24T16:24:27.437Z,270
2017-05-24T16:25:38.452Z,260
2017-05-24T16:26:49.468Z,270
2017-05-24T16:28:00.477Z,275
2017-05-24T16:29:11.548Z,255
2017-05-24T16:30:22.566Z,250
2017-05-24T16:31:33.575Z,280
2017-05-24T16:32:44.592Z,270